Flight Track Log - Related Links

Times and Time Zones

All times are in EDT time to prevent confusion due to time zone crossing. See the SWA508 flight status page for this flight to view local times or setup timezone preferences in your user account.

Time Position Orientation Groundspeed Altitude Reporting Facility
EDT Latitude Longitude Course Direction KTS MPH feet Rate Location/Type
Thu 11:06:12 AM 40.5692 -80.3206 286° West 291 335 8,100  Level Cleveland Center
Thu 11:07:12 AM 40.5883 -80.4300 283° West 318 366 11,200 3,200 Climbing Cleveland Center
Thu 11:08:12 AM 40.6050 -80.5586 280° West 348 400 14,500 3,350 Climbing Cleveland Center
Thu 11:09:00 AM 40.6570 -81.0830 286° West  Level FlightAware Approximate
Thu 11:09:12 AM 40.6278 -80.6953 282° West 374 430 17,900  Level Cleveland Center
Thu 11:10:00 AM 40.6831 -81.2068 286° West  Level FlightAware Approximate
Thu 11:10:11 AM 40.6506 -80.8322 282° West 374 430 20,400  Level Cleveland Center
Thu 11:11:00 AM 40.7091 -81.3307 286° West  Level FlightAware Approximate
Thu 11:11:12 AM 40.6731 -80.9772 282° West 392 451 23,300  Level Cleveland Center
Thu 11:12:12 AM 40.6914 -81.1144 280° West 417 480 25,700 2,350 Climbing Cleveland Center
Thu 11:13:12 AM 40.7197 -81.2681 284° West 432 497 28,000 2,600 Climbing Cleveland Center
Thu 11:14:12 AM 40.7500 -81.4217 285° West 432 497 30,900 2,000 Climbing Cleveland Center
Thu 11:15:12 AM 40.7800 -81.5703 285° West 432 497 32,000 550 Climbing Cleveland Center
Thu 11:16:12 AM 40.8056 -81.7214 283° West 427 491 32,000  Level Cleveland Center
Thu 11:17:12 AM 40.8353 -81.8839 284° West 427 491 32,000  Level Cleveland Center
Thu 11:18:12 AM 40.8647 -82.0328 285° West 427 491 32,000  Level Cleveland Center
Thu 11:19:12 AM 40.8919 -82.1844 283° West 422 486 32,000  Level Cleveland Center
Thu 11:20:11 AM 40.9189 -82.3308 284° West 417 480 32,000  Level Cleveland Center
Thu 11:21:12 AM 40.9456 -82.4828 283° West 417 480 32,000  Level Cleveland Center
Thu 11:22:12 AM 40.9722 -82.6347 283° West 417 480 32,000  Level Cleveland Center
Thu 11:23:12 AM 40.9947 -82.7703 282° West 417 480 32,000  Level Cleveland Center
Thu 11:24:12 AM 41.0231 -82.9225 284° West 417 480 32,000  Level Cleveland Center
Thu 11:25:11 AM 41.0489 -83.0722 283° West 417 480 32,000  Level Cleveland Center
Thu 11:26:12 AM 41.0806 -83.2386 284° West 417 480 32,000  Level Cleveland Center
Thu 11:27:12 AM 41.1003 -83.3744 281° West 422 486 32,000  Level Cleveland Center
Thu 11:28:11 AM 41.1258 -83.5244 283° West 417 480 32,000  Level Cleveland Center
Thu 11:29:12 AM 41.1531 -83.6775 283° West 417 480 32,000  Level Cleveland Center
Thu 11:30:11 AM 41.1781 -83.8275 283° West 417 480 32,000  Level Cleveland Center
Thu 11:31:11 AM 41.2050 -83.9753 284° West 417 480 32,000  Level Cleveland Center
Thu 11:33:15 AM 41.2600 -84.3067 283° West 421 484 32,000  Level Chicago Center
Thu 11:34:17 AM 41.2853 -84.4597 282° West 424 488 32,000 -435 Level Chicago Center
Thu 11:35:19 AM 41.3092 -84.6111 282° West 420 483 31,100 -919 Descending Chicago Center
Thu 11:36:21 AM 41.3328 -84.7636 282° West 421 484 30,100 -532 Descending Chicago Center
Thu 11:37:23 AM 41.3567 -84.9097 282° West 409 471 30,000 -49 Descending Chicago Center
Thu 11:38:24 AM 41.3786 -85.0575 281° West 407 468 30,000 -732 Level Chicago Center
Thu 11:39:26 AM 41.4008 -85.2047 281° West 406 467 28,500 -1,984 Descending Chicago Center
Thu 11:40:28 AM 41.4236 -85.3542 282° West 406 467 25,900 -2,516 Descending Chicago Center
Thu 11:41:30 AM 41.4511 -85.5369 281° West 411 473 23,300 -2,274 Descending Chicago Center
Thu 11:42:32 AM 41.4731 -85.6789 282° West 388 447 21,200 -2,032 Descending Chicago Center
Thu 11:43:34 AM 41.4933 -85.8164 281° West 375 432 19,100 -2,177 Descending Chicago Center
Thu 11:44:36 AM 41.5139 -85.9544 281° West 376 433 16,700 -2,468 Descending Chicago Center
Thu 11:45:38 AM 41.5250 -86.0947 276° West 382 440 14,000 -2,516 Descending Chicago Center
Thu 11:46:40 AM 41.5231 -86.2350 269° West 378 435 11,500 -1,887 Descending Chicago Center
Thu 11:47:42 AM 41.5219 -86.3653 269° West 349 402 10,100 -774 Descending Chicago Center
Thu 11:48:44 AM 41.5211 -86.5078 270° West 321 369 9,900 -97 Descending Chicago Center
Thu 11:49:46 AM 41.5206 -86.6289 270° West 325 374 9,900  Level Chicago Center
Thu 11:50:48 AM 41.5206 -86.7386 270° West 329 379 9,900 -48 Level Chicago Center
Thu 11:51:50 AM 41.5189 -86.8789 269° West 316 364 9,800 -823 Descending Chicago Center
Thu 11:52:52 AM 41.5167 -86.9875 268° West 297 342 8,200 -1,355 Descending Chicago Center
Thu 11:53:54 AM 41.5161 -87.0956 270° West 292 336 7,000 -581 Descending Chicago Center
Thu 11:54:56 AM 41.5286 -87.1986 279° West 284 327 7,000 -513 Level Chicago Center
Thu 11:55:51 AM 41.5333 -87.3000 274° West 281 323 6,000 -1,043 Descending Chicago TRACON
Thu 11:56:51 AM 41.5667 -87.4000 294° West 280 322 5,000 -1,000 Descending Chicago TRACON
Thu 11:57:51 AM 41.5833 -87.5000 283° West 277 319 4,000 -600 Descending Chicago TRACON
Thu 11:58:51 AM 41.6000 -87.6000 283° West 269 310 3,800 -500 Descending Chicago TRACON
Thu 11:59:51 AM 41.6000 -87.7000 270° West 264 304 3,000 -737 Descending Chicago TRACON
Thu 12:00:45 PM 41.6500 -87.7667 315° West 235 270 2,400 -313 Descending Chicago TRACON
Thu 12:01:46 PM 41.6833 -87.8167 312° West 182 209 2,400 -99 Level Chicago TRACON
Thu 12:02:46 PM 41.7167 -87.8333 340° North 179 206 2,200 -400 Descending Chicago TRACON
Thu 12:03:46 PM 41.7500 -87.8000 37° Northeast 123 142 1,600 -600 Descending Chicago TRACON
Thu 12:07:00 PM 41.7833 -87.7500 334° Northwest  Level FlightAware Approximate

Login

Don't have an account? Register now (free) for customized features, flight alerts, and more!